createdAt,value
2018-09-18T00:01:10.854Z,99.90
2018-09-18T00:03:39.782Z,99.90
2018-09-18T00:06:08.880Z,99.90
2018-09-18T00:08:37.911Z,99.90
2018-09-18T00:11:06.958Z,99.90
2018-09-18T00:13:36.104Z,99.90
2018-09-18T00:16:05.126Z,99.90
2018-09-18T00:18:34.042Z,99.90
2018-09-18T00:21:03.183Z,99.90
2018-09-18T00:23:32.251Z,99.90
2018-09-18T00:26:01.182Z,99.90
2018-09-18T00:28:30.369Z,99.90
2018-09-18T00:30:59.271Z,99.90
2018-09-18T00:33:28.098Z,99.90
2018-09-18T00:35:57.107Z,99.90
2018-09-18T00:38:26.047Z,99.90
2018-09-18T00:40:54.935Z,99.90
2018-09-18T00:43:24.134Z,99.90
2018-09-18T00:45:53.119Z,99.90
2018-09-18T00:48:22.027Z,99.90
2018-09-18T00:50:51.078Z,99.90
2018-09-18T00:53:19.962Z,99.90
2018-09-18T00:55:48.890Z,99.90
2018-09-18T00:58:18.023Z,99.90
2018-09-18T01:00:46.878Z,99.90
2018-09-18T01:03:15.786Z,99.90
2018-09-18T01:05:45.340Z,99.90
2018-09-18T01:08:14.419Z,99.90
2018-09-18T01:10:43.427Z,99.90
2018-09-18T01:13:12.526Z,99.90
2018-09-18T01:15:41.520Z,99.90
2018-09-18T01:18:10.514Z,99.90
2018-09-18T01:20:39.588Z,99.90
2018-09-18T01:23:08.450Z,99.90
2018-09-18T01:25:37.614Z,99.90
2018-09-18T01:28:06.811Z,99.90
2018-09-18T01:30:36.093Z,99.90
2018-09-18T01:33:05.062Z,99.90
2018-09-18T01:35:34.440Z,99.90
2018-09-18T01:38:03.435Z,99.90
2018-09-18T01:40:32.471Z,99.90
2018-09-18T01:43:01.518Z,99.90
2018-09-18T01:45:30.451Z,99.90
2018-09-18T01:47:59.452Z,99.90
2018-09-18T01:50:28.440Z,99.90
2018-09-18T01:52:57.579Z,99.90
2018-09-18T01:55:26.597Z,99.90
2018-09-18T01:57:55.759Z,99.90
2018-09-18T02:06:20.616Z,99.90
2018-09-18T02:08:49.727Z,99.90
2018-09-18T02:11:18.662Z,99.90
2018-09-18T02:13:47.663Z,99.90
2018-09-18T02:16:16.714Z,99.90
2018-09-18T02:18:45.677Z,99.90
2018-09-18T02:21:14.863Z,99.90
2018-09-18T02:23:44.003Z,99.90
2018-09-18T02:26:13.112Z,99.90
2018-09-18T02:28:42.284Z,99.90
2018-09-18T02:31:11.592Z,99.90
2018-09-18T02:33:40.842Z,99.90
2018-09-18T02:36:10.329Z,99.90
2018-09-18T02:38:39.348Z,99.90
2018-09-18T02:41:08.374Z,99.90
2018-09-18T02:43:37.442Z,99.90
2018-09-18T02:46:06.719Z,99.90
2018-09-18T02:48:35.711Z,99.90
2018-09-18T02:51:05.111Z,99.90
2018-09-18T02:53:34.039Z,99.90
2018-09-18T02:56:03.069Z,99.90
2018-09-18T02:58:32.224Z,99.90
2018-09-18T03:01:01.181Z,99.90
2018-09-18T03:03:30.052Z,99.90
2018-09-18T03:05:59.590Z,99.90
2018-09-18T03:08:29.012Z,99.90
2018-09-18T03:10:57.968Z,99.90
2018-09-18T03:13:27.655Z,99.90
2018-09-18T03:15:56.699Z,99.90
2018-09-18T03:18:26.548Z,99.90
2018-09-18T03:20:55.755Z,99.90
2018-09-18T03:23:24.826Z,99.90
2018-09-18T03:25:53.749Z,99.90
2018-09-18T03:28:22.995Z,99.90
2018-09-18T03:30:51.928Z,99.90
2018-09-18T03:33:20.952Z,99.90
2018-09-18T03:35:49.972Z,99.90
2018-09-18T03:38:18.871Z,99.90
2018-09-18T03:40:47.776Z,99.90
2018-09-18T03:43:16.747Z,99.90
2018-09-18T03:45:45.629Z,99.90
2018-09-18T03:48:14.512Z,99.90
2018-09-18T03:50:43.745Z,99.90
2018-09-18T03:53:12.672Z,99.90
2018-09-18T03:55:41.566Z,99.90
2018-09-18T03:58:10.672Z,99.90
2018-09-18T04:00:39.518Z,99.90
2018-09-18T04:03:08.665Z,99.90
2018-09-18T04:05:37.873Z,99.90
2018-09-18T04:08:06.911Z,99.90
2018-09-18T04:10:35.863Z,99.90
2018-09-18T04:13:04.909Z,99.90
2018-09-18T04:15:33.774Z,99.90
2018-09-18T04:18:02.775Z,99.90
2018-09-18T04:20:31.799Z,99.90
2018-09-18T04:23:00.659Z,99.90
2018-09-18T04:25:29.612Z,99.90
2018-09-18T04:27:58.869Z,99.90
2018-09-18T04:30:27.784Z,99.90
2018-09-18T04:32:56.715Z,99.90
2018-09-18T04:35:25.691Z,99.90
2018-09-18T04:37:54.563Z,99.90
2018-09-18T04:40:23.475Z,99.90
2018-09-18T04:42:52.439Z,99.90
2018-09-18T04:45:21.349Z,99.90
2018-09-18T04:47:50.243Z,99.90
2018-09-18T04:50:19.207Z,99.90
2018-09-18T04:52:48.128Z,99.90
2018-09-18T04:55:17.098Z,99.90
2018-09-18T04:57:46.604Z,99.90
2018-09-18T05:00:15.554Z,99.90
2018-09-18T05:02:44.415Z,99.90
2018-09-18T05:05:13.979Z,99.90
2018-09-18T05:07:42.870Z,99.90
2018-09-18T05:10:11.948Z,99.90
2018-09-18T05:12:41.295Z,99.90
2018-09-18T05:15:10.288Z,99.90
2018-09-18T05:17:39.691Z,99.90
2018-09-18T05:20:09.122Z,99.90
2018-09-18T05:22:38.011Z,99.90
2018-09-18T05:25:07.375Z,99.90
2018-09-18T05:27:36.709Z,99.90
2018-09-18T05:30:06.004Z,99.90
2018-09-18T05:32:34.935Z,99.90
2018-09-18T05:35:04.102Z,99.90
2018-09-18T05:37:33.027Z,99.90
2018-09-18T05:40:01.952Z,99.90
2018-09-18T05:42:30.998Z,99.90
2018-09-18T05:45:00.000Z,99.90
2018-09-18T05:47:28.875Z,99.90
2018-09-18T05:49:57.839Z,99.90
2018-09-18T05:52:26.747Z,99.90
2018-09-18T05:54:55.638Z,99.90
2018-09-18T05:57:24.892Z,99.90
2018-09-18T05:59:53.899Z,99.90
2018-09-18T06:02:22.993Z,99.90
2018-09-18T06:04:52.039Z,99.90
2018-09-18T06:07:20.951Z,99.90
2018-09-18T06:09:49.803Z,99.90
2018-09-18T06:12:19.200Z,99.90
2018-09-18T06:14:48.688Z,99.90
2018-09-18T06:17:17.576Z,99.90
2018-09-18T06:19:46.676Z,99.90
2018-09-18T06:22:16.285Z,99.90
2018-09-18T06:24:45.252Z,99.90
2018-09-18T06:27:14.607Z,99.90
2018-09-18T06:29:43.803Z,99.90
2018-09-18T06:32:12.685Z,99.90
2018-09-18T06:34:42.303Z,99.90
2018-09-18T06:37:11.260Z,99.90
2018-09-18T06:39:40.115Z,99.90
2018-09-18T06:42:09.242Z,99.90
2018-09-18T06:44:38.134Z,99.90
2018-09-18T06:47:07.540Z,99.90
2018-09-18T06:49:36.535Z,99.90
2018-09-18T06:52:05.480Z,99.90
2018-09-18T06:54:34.446Z,99.90
2018-09-18T06:57:03.499Z,99.90
2018-09-18T06:59:32.448Z,99.90
2018-09-18T07:02:01.364Z,99.90
2018-09-18T07:04:30.613Z,99.90
2018-09-18T07:06:59.544Z,99.90
2018-09-18T07:09:28.445Z,99.90
2018-09-18T07:11:57.498Z,99.90
2018-09-18T07:14:26.519Z,99.90
2018-09-18T07:16:55.490Z,99.90
2018-09-18T07:19:24.839Z,99.90
2018-09-18T07:21:53.997Z,99.90
2018-09-18T07:24:22.896Z,99.90
2018-09-18T07:26:52.011Z,99.90
2018-09-18T07:29:21.048Z,99.90
2018-09-18T07:31:50.007Z,99.90
2018-09-18T07:34:19.276Z,99.90
2018-09-18T07:36:48.109Z,99.90
2018-09-18T07:39:17.367Z,99.90
2018-09-18T07:41:46.370Z,99.90
2018-09-18T07:44:15.288Z,99.90
2018-09-18T07:46:44.145Z,99.90
2018-09-18T07:49:13.187Z,99.90
2018-09-18T07:51:42.108Z,99.90
2018-09-18T07:54:10.963Z,99.90
2018-09-18T07:56:40.547Z,99.90
2018-09-18T07:59:09.503Z,99.90
2018-09-18T08:01:38.452Z,99.90
2018-09-18T08:04:07.848Z,99.90
2018-09-18T08:06:36.743Z,99.90
2018-09-18T08:09:08.920Z,99.90
2018-09-18T08:11:38.256Z,99.90
2018-09-18T08:14:07.246Z,99.90
2018-09-18T08:16:36.283Z,99.90
2018-09-18T08:19:05.658Z,99.90
2018-09-18T08:21:34.372Z,99.90
2018-09-18T08:24:03.463Z,99.90
2018-09-18T08:26:32.278Z,99.90
2018-09-18T08:29:01.415Z,99.90
2018-09-18T08:31:30.495Z,99.90
2018-09-18T08:33:59.653Z,99.90
2018-09-18T08:36:28.548Z,99.90
2018-09-18T08:38:57.586Z,99.90
2018-09-18T08:41:26.550Z,99.90
2018-09-18T08:43:56.012Z,99.90
2018-09-18T08:46:25.443Z,99.90
2018-09-18T08:48:58.389Z,99.90
2018-09-18T08:51:27.706Z,99.90
2018-09-18T08:53:56.663Z,99.90
2018-09-18T08:56:25.639Z,99.90
2018-09-18T08:58:54.665Z,99.90
2018-09-18T09:01:24.459Z,99.90
2018-09-18T09:03:53.383Z,99.90
2018-09-18T09:06:22.811Z,99.90
2018-09-18T09:08:51.837Z,99.90
2018-09-18T09:11:20.647Z,99.90
2018-09-18T09:13:49.752Z,99.90
2018-09-18T09:16:18.572Z,99.90
2018-09-18T09:18:47.559Z,99.90
2018-09-18T09:21:16.751Z,99.90
2018-09-18T09:23:46.001Z,99.90
2018-09-18T09:26:15.002Z,99.90
2018-09-18T09:28:43.964Z,99.90
2018-09-18T09:31:12.811Z,99.90
2018-09-18T09:33:41.697Z,99.90
2018-09-18T09:36:10.844Z,99.90
2018-09-18T09:38:39.814Z,99.90
2018-09-18T09:41:08.660Z,99.90
2018-09-18T09:43:37.657Z,99.90
2018-09-18T09:46:06.470Z,99.90
2018-09-18T09:48:36.154Z,99.90
2018-09-18T09:51:05.693Z,99.90
2018-09-18T09:53:35.203Z,99.90
2018-09-18T09:56:04.097Z,99.90
2018-09-18T09:58:33.408Z,99.90
2018-09-18T10:01:07.408Z,99.90
2018-09-18T10:03:36.608Z,99.90
2018-09-18T10:06:05.428Z,99.90
2018-09-18T10:08:34.456Z,99.90
2018-09-18T10:11:03.448Z,99.90
2018-09-18T10:13:32.145Z,99.90
2018-09-18T10:16:01.212Z,99.90
2018-09-18T10:18:30.037Z,99.90
2018-09-18T10:20:58.853Z,99.90
2018-09-18T10:23:29.005Z,99.90
2018-09-18T10:25:58.143Z,99.90
2018-09-18T10:28:27.674Z,99.90
2018-09-18T10:30:57.097Z,99.90
2018-09-18T10:33:27.344Z,99.90
2018-09-18T10:35:56.220Z,99.90
2018-09-18T10:38:25.196Z,99.90
2018-09-18T10:40:54.126Z,99.90
2018-09-18T10:43:23.108Z,99.90
2018-09-18T10:45:52.257Z,99.90
2018-09-18T10:48:21.160Z,99.90
2018-09-18T10:50:50.053Z,99.90
2018-09-18T10:53:19.100Z,99.90
2018-09-18T10:55:48.040Z,99.90
2018-09-18T10:58:16.977Z,99.90
2018-09-18T11:00:46.112Z,99.90
2018-09-18T11:03:15.008Z,99.90
2018-09-18T11:05:44.091Z,99.90
2018-09-18T11:08:13.002Z,99.90
2018-09-18T11:10:41.929Z,99.90
2018-09-18T11:13:10.876Z,99.90
2018-09-18T11:15:39.958Z,99.90
2018-09-18T11:18:08.730Z,99.90
2018-09-18T11:20:37.756Z,99.90
2018-09-18T11:23:06.847Z,99.90
2018-09-18T11:25:35.730Z,99.90
2018-09-18T11:28:04.572Z,99.90
2018-09-18T11:30:33.637Z,99.90
2018-09-18T11:33:02.653Z,99.90
2018-09-18T11:35:31.799Z,99.90
2018-09-18T11:38:00.812Z,99.90
2018-09-18T11:40:29.786Z,99.90
2018-09-18T11:42:58.601Z,99.90
2018-09-18T11:45:27.969Z,99.90
2018-09-18T11:47:57.125Z,99.90
2018-09-18T11:50:25.980Z,99.90
2018-09-18T11:52:55.195Z,99.90
2018-09-18T11:55:24.021Z,99.90
2018-09-18T11:57:52.889Z,99.90
2018-09-18T12:00:22.137Z,99.90
2018-09-18T12:02:51.198Z,99.90
2018-09-18T12:05:20.179Z,99.90
2018-09-18T12:07:49.288Z,99.90
2018-09-18T12:10:18.081Z,99.90
2018-09-18T12:12:46.896Z,99.90
2018-09-18T12:15:16.045Z,99.90
2018-09-18T12:17:44.839Z,99.90
2018-09-18T12:20:13.701Z,99.90
2018-09-18T12:22:43.206Z,99.90
2018-09-18T12:25:12.073Z,99.90
2018-09-18T12:27:40.933Z,99.90
2018-09-18T12:30:09.886Z,99.90
2018-09-18T12:32:38.777Z,99.90
2018-09-18T12:35:07.658Z,99.90
2018-09-18T12:37:37.053Z,99.90
2018-09-18T12:40:06.348Z,99.90
2018-09-18T12:42:35.621Z,99.90
2018-09-18T12:45:04.696Z,99.90
2018-09-18T12:47:33.791Z,99.90
2018-09-18T12:50:02.948Z,99.10
2018-09-18T12:52:31.785Z,98.10
2018-09-18T12:55:00.604Z,96.50
2018-09-18T12:57:29.933Z,94.20
2018-09-18T12:59:58.770Z,93.60
2018-09-18T13:02:27.686Z,92.20
2018-09-18T13:04:56.527Z,92.00
2018-09-18T13:07:25.629Z,90.50
2018-09-18T13:09:54.694Z,91.60
2018-09-18T13:12:23.560Z,90.80
2018-09-18T13:14:53.116Z,90.80
2018-09-18T13:17:22.004Z,90.80
2018-09-18T13:19:50.956Z,91.30
2018-09-18T13:22:20.088Z,94.60
2018-09-18T13:24:48.941Z,95.40
2018-09-18T13:27:17.836Z,97.40
2018-09-18T13:29:46.899Z,99.90
2018-09-18T13:32:15.812Z,99.90
2018-09-18T13:34:44.630Z,99.90
2018-09-18T13:37:13.780Z,99.90
2018-09-18T13:39:42.714Z,99.90
2018-09-18T13:42:11.576Z,99.90
2018-09-18T13:44:40.661Z,99.90
2018-09-18T13:47:09.926Z,99.90
2018-09-18T13:49:39.064Z,99.90
2018-09-18T13:52:08.363Z,99.90
2018-09-18T13:54:38.033Z,99.90
2018-09-18T13:57:06.894Z,99.90
2018-09-18T13:59:36.219Z,99.90
2018-09-18T14:02:05.233Z,99.90
2018-09-18T14:04:34.024Z,99.90
2018-09-18T14:07:03.026Z,99.90
2018-09-18T14:09:31.938Z,99.90
2018-09-18T14:12:00.980Z,99.90
2018-09-18T14:14:30.080Z,99.90
2018-09-18T14:16:58.972Z,99.90
2018-09-18T14:19:27.900Z,99.90
2018-09-18T14:21:56.861Z,99.90
2018-09-18T14:24:25.803Z,99.90
2018-09-18T14:26:54.594Z,99.90
2018-09-18T14:29:23.723Z,99.90
2018-09-18T14:31:52.600Z,99.90
2018-09-18T14:34:21.520Z,99.90
2018-09-18T14:36:50.711Z,99.90
2018-09-18T14:39:19.663Z,99.90
2018-09-18T14:41:48.681Z,99.90
2018-09-18T14:44:17.832Z,99.90
2018-09-18T14:46:46.858Z,99.90
2018-09-18T14:49:15.564Z,99.90
2018-09-18T14:51:44.616Z,99.90
2018-09-18T14:54:13.476Z,99.90
2018-09-18T14:56:42.579Z,99.90
2018-09-18T14:59:11.650Z,99.90
2018-09-18T15:01:40.750Z,99.90
2018-09-18T15:04:10.047Z,99.90
2018-09-18T15:06:39.112Z,99.90
2018-09-18T15:09:09.819Z,99.90
2018-09-18T15:11:38.787Z,99.90
2018-09-18T15:14:08.252Z,99.90
2018-09-18T15:16:37.584Z,99.90
2018-09-18T15:19:06.713Z,99.90
2018-09-18T15:21:36.098Z,99.90
2018-09-18T15:24:05.049Z,99.90
2018-09-18T15:26:33.904Z,99.90
2018-09-18T15:29:03.063Z,99.90
2018-09-18T15:31:32.036Z,99.90
2018-09-18T15:34:01.035Z,99.90
2018-09-18T15:36:29.896Z,99.90
2018-09-18T15:38:58.840Z,99.90
2018-09-18T15:41:27.681Z,99.90
2018-09-18T15:43:56.665Z,99.90
2018-09-18T15:46:25.525Z,99.90
2018-09-18T15:48:54.368Z,99.90
2018-09-18T15:51:23.490Z,99.90
2018-09-18T15:53:52.311Z,99.90
2018-09-18T15:56:21.167Z,99.90
2018-09-18T15:58:50.056Z,99.90
2018-09-18T16:01:19.004Z,99.90
2018-09-18T16:03:47.808Z,99.90
2018-09-18T16:06:16.796Z,99.90
2018-09-18T16:08:46.093Z,99.90
2018-09-18T16:11:14.952Z,99.90
2018-09-18T16:13:44.601Z,99.90
2018-09-18T16:16:13.659Z,99.90
2018-09-18T16:18:42.509Z,99.90
2018-09-18T16:21:16.284Z,99.90
2018-09-18T16:23:45.764Z,99.90
2018-09-18T16:26:14.613Z,99.90
2018-09-18T16:28:43.405Z,99.90
2018-09-18T16:31:12.432Z,99.90
2018-09-18T16:33:41.220Z,99.90
2018-09-18T16:36:10.038Z,99.90
2018-09-18T16:38:39.338Z,99.90
2018-09-18T16:41:08.326Z,99.90
2018-09-18T16:43:37.194Z,99.90
2018-09-18T16:46:06.160Z,99.90
2018-09-18T16:48:35.183Z,99.90
2018-09-18T16:51:04.048Z,99.90
2018-09-18T16:53:33.298Z,99.90
2018-09-18T16:56:02.884Z,99.90
2018-09-18T16:58:31.842Z,99.90
2018-09-18T17:01:00.945Z,99.90
2018-09-18T17:03:29.780Z,99.90
2018-09-18T17:05:58.683Z,99.90
2018-09-18T17:08:27.679Z,99.90
2018-09-18T17:10:56.537Z,99.90
2018-09-18T17:13:25.592Z,99.90
2018-09-18T17:15:54.644Z,99.90
2018-09-18T17:18:23.742Z,99.90
2018-09-18T17:20:52.653Z,99.90
2018-09-18T17:23:21.646Z,99.90
2018-09-18T17:25:50.983Z,99.90
2018-09-18T17:28:19.981Z,99.90
2018-09-18T17:30:49.174Z,99.90
2018-09-18T17:33:18.061Z,99.90
2018-09-18T17:35:46.912Z,99.90
2018-09-18T17:38:15.976Z,99.90
2018-09-18T17:40:44.822Z,99.90
2018-09-18T17:43:13.664Z,99.90
2018-09-18T17:45:42.765Z,99.90
2018-09-18T17:48:11.600Z,99.90
2018-09-18T17:50:40.498Z,99.90
2018-09-18T17:53:09.617Z,99.90
2018-09-18T17:55:38.488Z,99.90
2018-09-18T17:58:07.416Z,99.90
2018-09-18T18:00:36.412Z,99.90
2018-09-18T18:03:10.772Z,99.90
2018-09-18T18:05:39.866Z,99.90
2018-09-18T18:08:08.849Z,99.90
2018-09-18T18:10:37.785Z,99.90
2018-09-18T18:13:06.817Z,99.90
2018-09-18T18:15:35.744Z,99.90
2018-09-18T18:18:04.622Z,99.90
2018-09-18T18:20:33.958Z,99.90
2018-09-18T18:23:02.806Z,99.90
2018-09-18T18:25:31.655Z,99.90
2018-09-18T18:28:00.916Z,99.90
2018-09-18T18:30:29.809Z,99.90
2018-09-18T18:32:58.702Z,99.90
2018-09-18T18:35:27.762Z,99.90
2018-09-18T18:37:56.578Z,99.90
2018-09-18T18:40:25.400Z,99.90
2018-09-18T18:42:54.734Z,99.90
2018-09-18T18:45:23.645Z,99.90
2018-09-18T18:47:52.814Z,99.90
2018-09-18T18:50:21.773Z,99.90
2018-09-18T18:52:50.682Z,99.90
2018-09-18T18:55:19.592Z,99.90
2018-09-18T18:57:48.601Z,99.90
2018-09-18T19:00:17.497Z,99.90
2018-09-18T19:02:46.297Z,99.90
2018-09-18T19:05:15.276Z,99.90
2018-09-18T19:07:44.114Z,99.90
2018-09-18T19:10:13.053Z,99.90
2018-09-18T19:12:42.176Z,99.90
2018-09-18T19:15:11.035Z,99.90
2018-09-18T19:17:40.001Z,99.90
2018-09-18T19:20:09.137Z,99.90
2018-09-18T19:22:38.060Z,99.90
2018-09-18T19:25:06.964Z,99.90
2018-09-18T19:27:36.029Z,99.90
2018-09-18T19:30:05.281Z,99.90
2018-09-18T19:32:34.185Z,99.90
2018-09-18T19:35:03.179Z,99.90
2018-09-18T19:37:32.105Z,99.90
2018-09-18T19:40:07.577Z,99.90
2018-09-18T19:42:36.389Z,99.90
2018-09-18T19:45:05.395Z,99.90
2018-09-18T19:47:34.430Z,99.90
2018-09-18T19:50:03.269Z,99.90
2018-09-18T19:52:32.154Z,99.90
2018-09-18T19:55:01.237Z,99.90
2018-09-18T19:57:30.090Z,99.90
2018-09-18T19:59:58.924Z,99.90
2018-09-18T20:02:27.859Z,99.90
2018-09-18T20:04:56.916Z,99.90
2018-09-18T20:07:25.857Z,99.90
2018-09-18T20:09:55.570Z,99.90
2018-09-18T20:12:24.805Z,99.90
2018-09-18T20:14:53.724Z,99.90
2018-09-18T20:17:22.709Z,99.90
2018-09-18T20:19:51.633Z,99.90
2018-09-18T20:22:20.630Z,99.90
2018-09-18T20:24:49.924Z,99.90
2018-09-18T20:27:18.936Z,99.90
2018-09-18T20:29:47.934Z,99.90
2018-09-18T20:32:17.016Z,99.90
2018-09-18T20:34:46.105Z,99.90
2018-09-18T20:37:45.916Z,99.90
2018-09-18T20:40:14.860Z,99.90
2018-09-18T20:42:43.787Z,99.90
2018-09-18T20:45:13.153Z,99.90
2018-09-18T20:47:42.029Z,99.90
2018-09-18T20:50:11.016Z,99.90
2018-09-18T20:52:40.196Z,99.90
2018-09-18T20:55:09.078Z,99.90
2018-09-18T20:57:37.934Z,99.90
2018-09-18T21:00:07.221Z,99.90
2018-09-18T21:02:36.243Z,99.90
2018-09-18T21:05:05.320Z,99.90
2018-09-18T21:07:34.544Z,99.90
2018-09-18T21:10:03.621Z,99.90
2018-09-18T21:12:32.547Z,99.90
2018-09-18T21:15:01.934Z,99.90
2018-09-18T21:17:30.919Z,99.90
2018-09-18T21:20:00.056Z,99.90
2018-09-18T21:22:29.075Z,99.90
2018-09-18T21:25:11.312Z,99.90
2018-09-18T21:27:40.699Z,99.90
2018-09-18T21:30:09.734Z,99.90
2018-09-18T21:32:39.032Z,99.90
2018-09-18T21:35:08.505Z,99.90
2018-09-18T21:37:37.577Z,99.90
2018-09-18T21:40:06.664Z,99.90
2018-09-18T21:42:35.856Z,99.90
2018-09-18T21:45:05.009Z,99.90
2018-09-18T21:47:34.220Z,99.90
2018-09-18T21:50:03.677Z,99.90
2018-09-18T21:52:32.748Z,99.90
2018-09-18T21:55:01.621Z,99.90
2018-09-18T21:57:30.675Z,99.90
2018-09-18T21:59:59.675Z,99.90
2018-09-18T22:02:28.550Z,99.90
2018-09-18T22:04:57.869Z,99.90
2018-09-18T22:07:26.749Z,99.90
2018-09-18T22:09:55.648Z,99.90
2018-09-18T22:12:25.048Z,99.90
2018-09-18T22:14:53.943Z,99.90
2018-09-18T22:17:22.848Z,99.90
2018-09-18T22:19:52.100Z,99.90
2018-09-18T22:22:21.125Z,99.90
2018-09-18T22:24:50.054Z,99.90
2018-09-18T22:27:19.422Z,99.90
2018-09-18T22:29:48.439Z,99.90
2018-09-18T22:32:17.256Z,99.90
2018-09-18T22:34:46.543Z,99.90
2018-09-18T22:37:15.639Z,99.90
2018-09-18T22:39:44.618Z,99.90
2018-09-18T22:42:13.706Z,99.90
2018-09-18T22:44:42.733Z,99.90
2018-09-18T22:47:12.087Z,99.90
2018-09-18T22:49:41.424Z,99.90
2018-09-18T22:52:10.463Z,99.90
2018-09-18T22:54:39.538Z,99.90
2018-09-18T22:57:08.632Z,99.90
2018-09-18T22:59:37.587Z,99.90
2018-09-18T23:02:06.827Z,99.90
2018-09-18T23:04:35.979Z,99.90
2018-09-18T23:07:05.063Z,99.90
2018-09-18T23:09:33.955Z,99.90
2018-09-18T23:12:03.297Z,99.90
2018-09-18T23:14:32.527Z,99.90
2018-09-18T23:17:01.464Z,99.90
2018-09-18T23:19:30.535Z,99.90
2018-09-18T23:21:59.757Z,99.90
2018-09-18T23:24:28.752Z,99.90
2018-09-18T23:26:57.878Z,99.90
2018-09-18T23:29:27.391Z,99.90
2018-09-18T23:31:56.299Z,99.90
2018-09-18T23:34:25.721Z,99.90
2018-09-18T23:36:54.723Z,99.90
2018-09-18T23:39:23.666Z,99.90
2018-09-18T23:41:53.238Z,99.90
2018-09-18T23:44:22.270Z,99.90
2018-09-18T23:46:51.173Z,99.90
2018-09-18T23:49:20.615Z,99.90
2018-09-18T23:51:49.673Z,99.90
2018-09-18T23:54:18.680Z,99.90
2018-09-18T23:56:48.170Z,99.90
2018-09-18T23:59:17.253Z,99.90
